createdAt,value
2022-12-29T00:01:24.680Z,10.08
2022-12-29T00:03:27.623Z,10.18
2022-12-29T00:05:30.512Z,10.26
2022-12-29T00:07:33.359Z,10.31
2022-12-29T00:09:37.360Z,10.46
2022-12-29T00:11:40.381Z,10.51
2022-12-29T00:14:01.132Z,10.62
2022-12-29T00:16:08.929Z,10.60
2022-12-29T00:18:11.744Z,10.70
2022-12-29T00:20:28.606Z,10.64
2022-12-29T00:22:49.230Z,10.76
2022-12-29T00:25:09.528Z,10.71
2022-12-29T00:27:32.105Z,10.75
2022-12-29T00:29:52.532Z,10.86
2022-12-29T00:32:14.260Z,11.03
2022-12-29T00:34:34.744Z,10.96
2022-12-29T00:36:41.431Z,10.98
2022-12-29T00:39:05.194Z,10.97
2022-12-29T00:41:25.203Z,10.98
2022-12-29T00:43:45.735Z,10.93
2022-12-29T00:45:48.687Z,10.97
2022-12-29T00:47:52.819Z,10.95
2022-12-29T00:49:54.609Z,10.96
2022-12-29T00:52:00.051Z,10.97
2022-12-29T00:54:02.889Z,10.87
2022-12-29T00:56:06.042Z,10.91
2022-12-29T00:58:09.948Z,10.93
2022-12-29T01:00:14.070Z,10.87
2022-12-29T01:02:17.288Z,10.74
2022-12-29T01:04:24.110Z,10.74
2022-12-29T01:06:26.960Z,10.77
2022-12-29T01:08:29.942Z,10.87
2022-12-29T01:10:31.868Z,10.76
2022-12-29T01:12:45.945Z,10.75
2022-12-29T01:14:48.922Z,10.78
2022-12-29T01:16:51.919Z,10.74
2022-12-29T01:18:54.764Z,10.77
2022-12-29T01:21:03.460Z,10.76
2022-12-29T01:23:06.243Z,10.85
2022-12-29T01:25:09.457Z,10.82
2022-12-29T01:27:14.937Z,10.96
2022-12-29T01:29:18.328Z,10.81
2022-12-29T01:31:23.115Z,10.92
2022-12-29T01:33:25.997Z,10.86
2022-12-29T01:35:29.155Z,10.97
2022-12-29T01:37:35.526Z,11.04
2022-12-29T01:39:38.819Z,11.12
2022-12-29T01:41:41.611Z,11.08
2022-12-29T01:43:46.719Z,11.29
2022-12-29T01:45:53.121Z,11.22
2022-12-29T01:47:59.679Z,11.25
2022-12-29T01:50:07.136Z,11.26
2022-12-29T01:52:10.200Z,11.24
2022-12-29T01:54:19.348Z,11.17
2022-12-29T01:56:22.938Z,11.17
2022-12-29T01:58:32.203Z,11.22
2022-12-29T02:00:35.878Z,11.24
2022-12-29T02:02:39.651Z,11.30
2022-12-29T02:04:45.852Z,11.29
2022-12-29T02:06:53.826Z,11.33
2022-12-29T02:08:58.623Z,11.37
2022-12-29T02:11:04.812Z,11.30
2022-12-29T02:13:10.486Z,11.30
2022-12-29T02:15:13.238Z,11.23
2022-12-29T02:17:27.107Z,11.26
2022-12-29T02:20:03.742Z,11.28
2022-12-29T02:22:17.349Z,11.32
2022-12-29T02:24:53.824Z,11.32
2022-12-29T02:27:26.761Z,11.27
2022-12-29T02:29:44.768Z,11.32
2022-12-29T02:31:56.569Z,11.37
2022-12-29T02:34:13.100Z,11.42
2022-12-29T02:36:27.452Z,11.32
2022-12-29T02:38:47.800Z,11.42
2022-12-29T02:40:55.514Z,11.49
2022-12-29T02:43:05.478Z,11.48
2022-12-29T02:45:16.602Z,11.52
2022-12-29T02:47:31.838Z,11.43
2022-12-29T02:49:40.449Z,11.38
2022-12-29T02:51:50.327Z,11.34
2022-12-29T02:54:12.206Z,11.43
2022-12-29T02:56:15.068Z,11.42
2022-12-29T02:58:20.798Z,11.42
2022-12-29T03:00:23.594Z,11.43
2022-12-29T03:02:48.511Z,11.33
2022-12-29T03:05:12.218Z,11.38
2022-12-29T03:07:20.579Z,11.38
2022-12-29T03:09:35.670Z,11.37
2022-12-29T03:12:04.615Z,11.34
2022-12-29T03:14:33.211Z,11.34
2022-12-29T03:16:42.848Z,11.27
2022-12-29T03:18:54.718Z,11.25
2022-12-29T03:21:04.685Z,11.26
2022-12-29T03:23:08.758Z,11.32
2022-12-29T03:25:27.965Z,11.37
2022-12-29T03:27:34.518Z,11.29
2022-12-29T03:29:41.492Z,11.31
2022-12-29T03:31:46.694Z,11.30
2022-12-29T03:33:52.066Z,11.26
2022-12-29T03:36:00.545Z,11.23
2022-12-29T03:38:12.938Z,11.23
2022-12-29T03:40:16.194Z,11.34
2022-12-29T03:42:25.790Z,11.26
2022-12-29T03:44:34.911Z,11.33
2022-12-29T03:46:38.890Z,11.31
2022-12-29T03:48:41.823Z,11.26
2022-12-29T03:50:46.907Z,11.24
2022-12-29T03:52:49.761Z,11.20
2022-12-29T03:54:52.541Z,11.22
2022-12-29T03:56:55.569Z,11.20
2022-12-29T03:59:10.166Z,11.12
2022-12-29T04:01:16.374Z,11.12
2022-12-29T04:03:21.280Z,11.12
2022-12-29T04:05:24.114Z,11.14
2022-12-29T04:07:31.524Z,11.18
2022-12-29T04:09:34.391Z,11.16
2022-12-29T04:11:38.559Z,11.10
2022-12-29T04:13:42.249Z,11.04
2022-12-29T04:15:47.555Z,11.15
2022-12-29T04:17:50.530Z,11.12
2022-12-29T04:20:13.551Z,11.14
2022-12-29T04:22:17.274Z,11.03
2022-12-29T04:24:22.831Z,11.07
2022-12-29T04:26:26.787Z,11.15
2022-12-29T04:28:35.931Z,11.16
2022-12-29T04:30:52.624Z,11.17
2022-12-29T04:33:00.849Z,11.15
2022-12-29T04:35:06.582Z,11.12
2022-12-29T04:37:09.438Z,11.10
2022-12-29T04:39:13.112Z,11.16
2022-12-29T04:41:18.585Z,11.17
2022-12-29T04:43:22.939Z,11.14
2022-12-29T04:45:39.003Z,11.11
2022-12-29T04:47:57.379Z,11.04
2022-12-29T04:50:02.982Z,11.03
2022-12-29T04:52:15.291Z,11.00
2022-12-29T04:54:20.700Z,11.09
2022-12-29T04:56:32.631Z,11.20
2022-12-29T04:58:35.413Z,11.21
2022-12-29T05:00:38.315Z,11.18
2022-12-29T05:02:42.118Z,11.11
2022-12-29T05:04:45.105Z,11.18
2022-12-29T05:06:48.043Z,11.16
2022-12-29T05:08:50.938Z,11.15
2022-12-29T05:10:54.071Z,11.23
2022-12-29T05:12:59.784Z,11.13
2022-12-29T05:15:03.610Z,11.09
2022-12-29T05:17:07.219Z,11.05
2022-12-29T05:19:10.697Z,11.11
2022-12-29T05:21:14.330Z,11.16
2022-12-29T05:23:18.987Z,11.18
2022-12-29T05:25:26.963Z,11.16
2022-12-29T05:27:43.641Z,11.18
2022-12-29T05:29:56.967Z,11.15
2022-12-29T05:31:59.853Z,11.19
2022-12-29T05:34:03.334Z,11.14
2022-12-29T05:36:07.215Z,11.14
2022-12-29T05:38:10.627Z,11.21
2022-12-29T05:40:14.450Z,11.08
2022-12-29T05:42:17.944Z,11.17
2022-12-29T05:44:41.562Z,10.99
2022-12-29T05:46:57.382Z,10.92
2022-12-29T05:49:21.488Z,10.82
2022-12-29T05:51:31.740Z,10.94
2022-12-29T05:53:34.633Z,10.95
2022-12-29T05:55:37.473Z,10.98
2022-12-29T05:57:40.693Z,10.94
2022-12-29T05:59:49.540Z,11.03
2022-12-29T06:01:52.513Z,10.93
2022-12-29T06:03:56.749Z,10.87
2022-12-29T06:05:59.702Z,10.97
2022-12-29T06:08:03.471Z,11.03
2022-12-29T06:10:07.595Z,11.01
2022-12-29T06:12:18.841Z,11.00
2022-12-29T06:14:24.765Z,10.97
2022-12-29T06:16:30.194Z,11.06
2022-12-29T06:18:35.673Z,11.00
2022-12-29T06:20:39.768Z,11.02
2022-12-29T06:22:44.464Z,11.09
2022-12-29T06:24:47.278Z,11.05
2022-12-29T06:26:50.236Z,11.00
2022-12-29T06:28:53.610Z,11.03
2022-12-29T06:30:56.509Z,11.05
2022-12-29T06:32:59.918Z,11.00
2022-12-29T06:35:03.102Z,11.02
2022-12-29T06:37:07.273Z,11.08
2022-12-29T06:39:12.322Z,11.06
2022-12-29T06:41:15.242Z,11.02
2022-12-29T06:43:38.859Z,11.01
2022-12-29T06:46:00.316Z,11.03
2022-12-29T06:48:03.230Z,11.00
2022-12-29T06:50:07.209Z,11.03
2022-12-29T06:52:13.149Z,11.05
2022-12-29T06:54:16.375Z,11.05
2022-12-29T06:56:19.438Z,11.15
2022-12-29T06:58:22.312Z,11.16
2022-12-29T07:00:25.169Z,11.15
2022-12-29T07:02:28.049Z,11.13
2022-12-29T07:04:31.201Z,11.09
2022-12-29T07:06:34.042Z,11.10
2022-12-29T07:08:39.356Z,11.12
2022-12-29T07:10:42.259Z,11.12
2022-12-29T07:12:45.066Z,11.13
2022-12-29T07:14:47.860Z,11.14
2022-12-29T07:16:50.728Z,11.21
2022-12-29T07:18:53.662Z,11.19
2022-12-29T07:20:56.460Z,11.20
2022-12-29T07:23:01.397Z,11.28
2022-12-29T07:25:06.354Z,11.22
2022-12-29T07:27:09.154Z,11.23
2022-12-29T07:29:11.965Z,11.18
2022-12-29T07:31:17.532Z,11.28
2022-12-29T07:33:20.351Z,11.30
2022-12-29T07:35:23.148Z,11.34
2022-12-29T07:37:25.903Z,11.32
2022-12-29T07:39:28.672Z,11.40
2022-12-29T07:41:32.791Z,11.37
2022-12-29T07:43:38.401Z,11.38
2022-12-29T07:46:00.452Z,11.44
2022-12-29T07:48:06.806Z,11.46
2022-12-29T07:50:09.932Z,11.41
2022-12-29T07:52:12.822Z,11.37
2022-12-29T07:54:18.981Z,11.45
2022-12-29T07:56:21.999Z,11.43
2022-12-29T07:58:26.195Z,11.49
2022-12-29T08:00:29.311Z,11.44
2022-12-29T08:02:35.182Z,11.49
2022-12-29T08:04:38.012Z,11.53
2022-12-29T08:06:40.810Z,11.50
2022-12-29T08:08:43.579Z,11.56
2022-12-29T08:10:46.443Z,11.57
2022-12-29T08:12:49.331Z,11.62
2022-12-29T08:14:53.464Z,11.60
2022-12-29T08:16:56.285Z,11.61
2022-12-29T08:18:59.849Z,11.68
2022-12-29T08:21:04.040Z,11.66
2022-12-29T08:23:06.814Z,11.62
2022-12-29T08:25:10.379Z,11.57
2022-12-29T08:27:20.053Z,11.63
2022-12-29T08:29:23.985Z,11.59
2022-12-29T08:31:28.122Z,11.64
2022-12-29T08:33:31.651Z,11.57
2022-12-29T08:35:34.721Z,11.63
2022-12-29T08:37:37.553Z,11.68
2022-12-29T08:39:40.438Z,11.66
2022-12-29T08:41:43.208Z,11.65
2022-12-29T08:43:48.036Z,11.69
2022-12-29T08:45:50.868Z,11.63
2022-12-29T08:47:55.029Z,11.69
2022-12-29T08:49:57.815Z,11.67
2022-12-29T08:52:00.855Z,11.69
2022-12-29T08:54:03.916Z,11.70
2022-12-29T08:56:08.208Z,11.73
2022-12-29T08:58:20.011Z,11.78
2022-12-29T09:00:23.530Z,11.69
2022-12-29T09:02:27.770Z,11.62
2022-12-29T09:04:32.379Z,11.69
2022-12-29T09:06:40.244Z,11.71
2022-12-29T09:08:43.610Z,11.63
2022-12-29T09:10:46.997Z,11.61
2022-12-29T09:12:49.770Z,11.68
2022-12-29T09:14:52.678Z,11.69
2022-12-29T09:17:14.185Z,11.76
2022-12-29T09:19:16.984Z,11.90
2022-12-29T09:21:21.181Z,12.03
2022-12-29T09:23:23.906Z,12.15
2022-12-29T09:25:27.515Z,12.25
2022-12-29T09:27:30.965Z,12.23
2022-12-29T09:29:33.739Z,12.28
2022-12-29T09:31:36.900Z,12.42
2022-12-29T09:33:39.775Z,12.44
2022-12-29T09:35:44.303Z,12.50
2022-12-29T09:37:48.474Z,12.47
2022-12-29T09:39:54.523Z,12.40
2022-12-29T09:42:07.839Z,12.36
2022-12-29T09:44:19.302Z,12.41
2022-12-29T09:46:27.395Z,12.40
2022-12-29T09:48:35.288Z,12.45
2022-12-29T09:50:40.106Z,12.44
2022-12-29T09:52:49.780Z,12.45
2022-12-29T09:55:02.890Z,12.54
2022-12-29T09:57:12.607Z,12.49
2022-12-29T09:59:20.341Z,12.42
2022-12-29T10:01:32.379Z,12.41
2022-12-29T10:03:46.900Z,12.40
2022-12-29T10:05:55.394Z,12.47
2022-12-29T10:08:18.185Z,12.44
2022-12-29T10:10:36.663Z,12.45
2022-12-29T10:12:57.963Z,12.40
2022-12-29T10:15:06.424Z,12.41
2022-12-29T10:17:25.198Z,12.37
2022-12-29T10:19:41.646Z,12.34
2022-12-29T10:21:58.682Z,12.42
2022-12-29T10:24:06.605Z,12.36
2022-12-29T10:26:15.873Z,12.36
2022-12-29T10:28:22.749Z,12.37
2022-12-29T10:30:25.842Z,12.41
2022-12-29T10:32:33.618Z,12.42
2022-12-29T10:34:39.541Z,12.51
2022-12-29T10:36:48.393Z,12.63
2022-12-29T10:39:01.076Z,12.61
2022-12-29T10:41:13.679Z,12.50
2022-12-29T10:43:26.178Z,12.63
2022-12-29T10:45:33.516Z,12.61
2022-12-29T10:47:40.551Z,12.57
2022-12-29T10:49:47.134Z,12.59
2022-12-29T10:51:53.193Z,12.66
2022-12-29T10:54:03.031Z,12.65
2022-12-29T10:56:15.262Z,12.63
2022-12-29T10:58:20.301Z,12.60
2022-12-29T11:00:24.637Z,12.62
2022-12-29T11:02:54.793Z,12.64
2022-12-29T11:05:04.111Z,12.65
2022-12-29T11:07:13.312Z,12.65
2022-12-29T11:09:41.890Z,12.74
2022-12-29T11:11:46.312Z,12.77
2022-12-29T11:13:53.295Z,12.84
2022-12-29T11:15:56.219Z,12.82
2022-12-29T11:18:00.367Z,12.83
2022-12-29T11:20:28.613Z,12.81
2022-12-29T11:22:31.420Z,12.81
2022-12-29T11:24:34.166Z,12.84
2022-12-29T11:26:36.975Z,12.87
2022-12-29T11:28:40.301Z,12.85
2022-12-29T11:30:45.196Z,12.83
2022-12-29T11:32:53.305Z,12.87
2022-12-29T11:34:56.084Z,12.81
2022-12-29T11:37:03.087Z,12.83
2022-12-29T11:39:12.145Z,12.77
2022-12-29T11:41:25.059Z,12.76
2022-12-29T11:43:34.829Z,12.75
2022-12-29T11:45:38.520Z,12.78
2022-12-29T11:47:46.071Z,12.76
2022-12-29T11:49:52.702Z,12.74
2022-12-29T11:51:57.814Z,12.73
2022-12-29T11:54:04.194Z,12.75
2022-12-29T11:56:09.891Z,12.85
2022-12-29T11:58:17.897Z,12.91
2022-12-29T12:00:24.612Z,12.89
2022-12-29T12:02:42.895Z,12.92
2022-12-29T12:04:50.246Z,12.93
2022-12-29T12:07:02.227Z,12.84
2022-12-29T12:09:11.290Z,12.86
2022-12-29T12:11:17.027Z,12.89
2022-12-29T12:13:27.215Z,12.88
2022-12-29T12:15:43.412Z,12.82
2022-12-29T12:17:53.652Z,12.70
2022-12-29T12:20:04.108Z,12.73
2022-12-29T12:22:15.390Z,12.67
2022-12-29T12:24:37.019Z,12.55
2022-12-29T12:26:44.523Z,12.36
2022-12-29T12:28:54.867Z,12.21
2022-12-29T12:31:01.229Z,12.17
2022-12-29T12:33:07.782Z,12.07
2022-12-29T12:35:21.365Z,12.11
2022-12-29T12:37:44.090Z,12.03
2022-12-29T12:40:09.144Z,12.05
2022-12-29T12:42:27.417Z,12.09
2022-12-29T12:44:37.300Z,12.15
2022-12-29T12:46:54.785Z,12.23
2022-12-29T12:49:22.369Z,12.28
2022-12-29T12:51:36.110Z,12.23
2022-12-29T12:53:57.208Z,12.19
2022-12-29T12:56:18.721Z,12.18
2022-12-29T12:58:32.109Z,12.32
2022-12-29T13:00:44.123Z,12.42
2022-12-29T13:03:06.508Z,12.34
2022-12-29T13:05:31.208Z,12.33
2022-12-29T13:07:48.463Z,12.35
2022-12-29T13:10:05.544Z,12.31
2022-12-29T13:12:19.366Z,12.32
2022-12-29T13:14:35.033Z,12.35
2022-12-29T13:16:47.125Z,12.41
2022-12-29T13:18:56.820Z,12.36
2022-12-29T13:21:06.385Z,12.34
2022-12-29T13:23:19.498Z,12.23
2022-12-29T13:25:34.375Z,12.26
2022-12-29T13:27:45.900Z,12.15
2022-12-29T13:29:56.777Z,12.21
2022-12-29T13:32:18.032Z,12.13
2022-12-29T13:34:34.816Z,12.19
2022-12-29T13:36:44.157Z,12.16
2022-12-29T13:38:50.836Z,12.10
2022-12-29T13:40:57.586Z,12.09
2022-12-29T13:43:01.669Z,12.03
2022-12-29T13:45:08.438Z,11.94
2022-12-29T13:47:23.688Z,11.89
2022-12-29T13:49:28.228Z,11.83
2022-12-29T13:51:32.651Z,11.70
2022-12-29T13:53:43.910Z,11.71
2022-12-29T13:55:53.753Z,11.70
2022-12-29T13:58:02.511Z,11.66
2022-12-29T14:00:14.221Z,11.65
2022-12-29T14:02:28.504Z,11.58
2022-12-29T14:04:34.199Z,11.47
2022-12-29T14:06:41.438Z,11.55
2022-12-29T14:08:45.516Z,11.45
2022-12-29T14:10:52.539Z,11.31
2022-12-29T14:13:06.493Z,11.28
2022-12-29T14:15:25.152Z,11.29
2022-12-29T14:17:27.947Z,11.33
2022-12-29T14:19:33.630Z,11.21
2022-12-29T14:21:36.691Z,11.16
2022-12-29T14:23:41.788Z,11.20
2022-12-29T14:26:01.901Z,11.08
2022-12-29T14:28:17.948Z,11.08
2022-12-29T14:31:00.706Z,11.00
2022-12-29T14:33:05.327Z,11.05
2022-12-29T14:35:41.500Z,11.03
2022-12-29T14:37:44.304Z,11.00
2022-12-29T14:39:48.245Z,11.02
2022-12-29T14:42:02.132Z,11.08
2022-12-29T14:44:19.824Z,11.13
2022-12-29T14:46:22.913Z,11.08
2022-12-29T14:48:44.302Z,11.07
2022-12-29T14:50:47.636Z,11.01
2022-12-29T14:53:02.083Z,10.95
2022-12-29T14:55:39.108Z,11.01
2022-12-29T14:57:45.023Z,10.98
2022-12-29T14:59:49.007Z,10.95
2022-12-29T15:01:55.845Z,11.02
2022-12-29T15:04:03.061Z,11.02
2022-12-29T15:06:10.110Z,11.10
2022-12-29T15:08:14.806Z,11.19
2022-12-29T15:10:20.875Z,11.34
2022-12-29T15:12:33.187Z,11.39
2022-12-29T15:14:40.388Z,11.39
2022-12-29T15:16:43.652Z,11.41
2022-12-29T15:18:46.655Z,11.46
2022-12-29T15:20:53.819Z,11.46
2022-12-29T15:22:59.386Z,11.46
2022-12-29T15:25:02.322Z,11.40
2022-12-29T15:27:06.310Z,11.33
2022-12-29T15:29:31.767Z,11.35
2022-12-29T15:31:35.987Z,11.35
2022-12-29T15:33:41.733Z,11.33
2022-12-29T15:35:44.576Z,11.27
2022-12-29T15:37:47.368Z,11.27
2022-12-29T15:39:50.348Z,11.24
2022-12-29T15:42:04.975Z,11.24
2022-12-29T15:44:16.890Z,11.14
2022-12-29T15:46:20.048Z,11.04
2022-12-29T15:48:26.361Z,10.96
2022-12-29T15:50:31.163Z,10.95
2022-12-29T15:52:34.959Z,10.87
2022-12-29T15:54:38.899Z,10.82
2022-12-29T15:56:43.479Z,10.81
2022-12-29T15:58:49.510Z,10.77
2022-12-29T16:00:54.998Z,10.82
2022-12-29T16:03:01.182Z,10.91
2022-12-29T16:05:19.828Z,10.92
2022-12-29T16:07:33.234Z,10.92
2022-12-29T16:09:45.088Z,10.86
2022-12-29T16:11:52.868Z,10.76
2022-12-29T16:13:57.638Z,10.78
2022-12-29T16:16:02.395Z,10.66
2022-12-29T16:18:06.689Z,10.63
2022-12-29T16:20:19.167Z,10.70
2022-12-29T16:22:29.069Z,10.77
2022-12-29T16:24:34.134Z,10.86
2022-12-29T16:26:38.065Z,10.67
2022-12-29T16:28:43.791Z,10.56
2022-12-29T16:30:46.939Z,10.59
2022-12-29T16:32:51.267Z,10.57
2022-12-29T16:35:05.315Z,10.52
2022-12-29T16:37:30.890Z,10.53
2022-12-29T16:39:38.114Z,10.64
2022-12-29T16:41:40.978Z,10.71
2022-12-29T16:43:43.976Z,10.74
2022-12-29T16:46:22.821Z,10.72
2022-12-29T16:48:28.076Z,10.68
2022-12-29T16:50:31.172Z,10.61
2022-12-29T16:52:36.580Z,10.57
2022-12-29T16:54:41.682Z,10.61
2022-12-29T16:56:46.852Z,10.74
2022-12-29T16:58:51.170Z,10.74
2022-12-29T17:00:57.195Z,10.79
2022-12-29T17:03:02.531Z,10.80
2022-12-29T17:05:05.845Z,10.78
2022-12-29T17:07:17.331Z,10.75
2022-12-29T17:09:23.539Z,10.75
2022-12-29T17:11:48.468Z,10.86
2022-12-29T17:13:54.209Z,10.78
2022-12-29T17:15:57.117Z,10.80
2022-12-29T17:18:01.976Z,10.79
2022-12-29T17:20:06.510Z,10.72
2022-12-29T17:22:13.761Z,10.71
2022-12-29T17:24:19.555Z,10.72
2022-12-29T17:26:23.688Z,10.72
2022-12-29T17:28:29.621Z,10.80
2022-12-29T17:30:35.956Z,10.77
2022-12-29T17:32:39.407Z,10.78
2022-12-29T17:34:42.739Z,10.82
2022-12-29T17:36:45.548Z,10.83
2022-12-29T17:38:48.646Z,10.79
2022-12-29T17:40:51.888Z,10.81
2022-12-29T17:42:57.833Z,10.76
2022-12-29T17:45:02.141Z,10.74
2022-12-29T17:47:04.930Z,10.74
2022-12-29T17:49:13.236Z,10.73
2022-12-29T17:51:16.252Z,10.73
2022-12-29T17:53:23.317Z,10.78
2022-12-29T17:55:31.253Z,10.73
2022-12-29T17:57:37.776Z,10.69
2022-12-29T17:59:42.223Z,10.69
2022-12-29T18:01:47.785Z,10.72
2022-12-29T18:03:50.852Z,10.65
2022-12-29T18:05:53.725Z,10.71
2022-12-29T18:07:58.070Z,10.71
2022-12-29T18:10:00.846Z,10.72
2022-12-29T18:12:04.751Z,10.78
2022-12-29T18:14:10.445Z,10.72
2022-12-29T18:16:15.585Z,10.64
2022-12-29T18:18:20.321Z,10.60
2022-12-29T18:20:23.270Z,10.60
2022-12-29T18:22:28.880Z,10.64
2022-12-29T18:24:31.665Z,10.65
2022-12-29T18:26:35.770Z,10.61
2022-12-29T18:28:38.620Z,10.63
2022-12-29T18:30:41.755Z,10.60
2022-12-29T18:32:46.169Z,10.56
2022-12-29T18:34:51.861Z,10.56
2022-12-29T18:36:54.627Z,10.42
2022-12-29T18:38:57.783Z,10.39
2022-12-29T18:41:00.622Z,10.37
2022-12-29T18:43:03.611Z,10.28
2022-12-29T18:45:16.418Z,10.34
2022-12-29T18:47:19.262Z,10.42
2022-12-29T18:49:23.900Z,10.39
2022-12-29T18:51:27.663Z,10.37
2022-12-29T18:53:30.427Z,10.35
2022-12-29T18:55:33.635Z,10.31
2022-12-29T18:57:37.048Z,10.30
2022-12-29T18:59:41.085Z,10.28
2022-12-29T19:01:44.065Z,10.25
2022-12-29T19:03:47.068Z,10.22
2022-12-29T19:05:51.220Z,10.18
2022-12-29T19:07:55.094Z,10.16
2022-12-29T19:09:59.781Z,10.09
2022-12-29T19:12:02.539Z,10.03
2022-12-29T19:14:05.404Z,10.10
2022-12-29T19:16:10.065Z,10.23
2022-12-29T19:20:43.223Z,10.25
2022-12-29T19:22:47.480Z,10.22
2022-12-29T19:24:53.691Z,10.20
2022-12-29T19:27:01.115Z,10.14
2022-12-29T19:29:05.781Z,10.13
2022-12-29T19:31:09.968Z,10.11
2022-12-29T19:33:14.763Z,10.09
2022-12-29T19:35:17.611Z,10.05
2022-12-29T19:37:21.253Z,10.09
2022-12-29T19:39:25.477Z,10.13
2022-12-29T19:41:29.091Z,10.16
2022-12-29T19:43:32.055Z,10.13
2022-12-29T19:45:35.068Z,10.13
2022-12-29T19:47:41.241Z,10.25
2022-12-29T19:49:46.821Z,10.18
2022-12-29T19:51:52.868Z,10.12
2022-12-29T19:53:58.483Z,10.16
2022-12-29T19:56:05.591Z,10.12
2022-12-29T19:58:11.386Z,10.13
2022-12-29T20:00:16.468Z,10.10
2022-12-29T20:02:24.243Z,10.13
2022-12-29T20:04:27.547Z,10.13
2022-12-29T20:06:32.733Z,10.13
2022-12-29T20:08:36.987Z,10.08
2022-12-29T20:10:40.534Z,10.04
2022-12-29T20:12:49.203Z,10.01
2022-12-29T20:14:52.325Z,10.07
2022-12-29T20:17:10.787Z,10.05
2022-12-29T20:19:16.171Z,10.06
2022-12-29T20:21:25.497Z,10.06
2022-12-29T20:23:29.653Z,10.04
2022-12-29T20:25:48.611Z,10.01
2022-12-29T20:27:54.312Z,10.03
2022-12-29T20:29:57.194Z,10.08
2022-12-29T20:32:00.333Z,10.08
2022-12-29T20:34:03.877Z,10.08
2022-12-29T20:36:08.490Z,10.03
2022-12-29T20:38:11.566Z,10.07
2022-12-29T20:40:16.796Z,10.00
2022-12-29T20:42:19.643Z,9.95
2022-12-29T20:44:30.477Z,9.99
2022-12-29T20:46:43.211Z,10.00
2022-12-29T20:48:46.940Z,9.95
2022-12-29T20:50:49.770Z,10.01
2022-12-29T20:52:53.746Z,10.09
2022-12-29T20:54:56.511Z,10.05
2022-12-29T20:56:59.399Z,10.05
2022-12-29T21:01:28.470Z,10.03
2022-12-29T21:03:31.648Z,9.99
2022-12-29T21:05:38.254Z,10.01
2022-12-29T21:07:41.712Z,10.03
2022-12-29T21:09:46.261Z,10.06
2022-12-29T21:11:49.445Z,10.08
2022-12-29T21:13:52.284Z,10.00
2022-12-29T21:15:58.219Z,10.06
2022-12-29T21:18:02.641Z,10.04
2022-12-29T21:20:09.015Z,10.01
2022-12-29T21:22:11.777Z,9.98
2022-12-29T21:24:14.762Z,9.94
2022-12-29T21:26:19.741Z,9.90
2022-12-29T21:28:26.548Z,9.91
2022-12-29T21:30:29.431Z,9.94
2022-12-29T21:32:32.413Z,9.82
2022-12-29T21:34:36.904Z,9.75
2022-12-29T21:36:40.264Z,9.78
2022-12-29T21:38:43.836Z,9.77
2022-12-29T21:40:46.949Z,9.75
2022-12-29T21:42:49.815Z,9.79
2022-12-29T21:45:11.958Z,9.75
2022-12-29T21:47:18.160Z,9.73
2022-12-29T21:49:21.601Z,9.76
2022-12-29T21:51:43.947Z,9.89
2022-12-29T21:53:47.311Z,9.74
2022-12-29T21:55:49.096Z,9.73
2022-12-29T21:58:09.414Z,9.52
2022-12-29T22:00:39.476Z,9.56
2022-12-29T22:03:00.065Z,9.47
2022-12-29T22:05:20.812Z,9.47
2022-12-29T22:07:43.762Z,9.56
2022-12-29T22:10:06.871Z,9.65
2022-12-29T22:12:27.059Z,9.65
2022-12-29T22:14:29.842Z,9.58
2022-12-29T22:16:35.410Z,9.64
2022-12-29T22:18:38.681Z,9.75
2022-12-29T22:20:41.536Z,9.72
2022-12-29T22:22:48.641Z,9.57
2022-12-29T22:24:51.617Z,9.61
2022-12-29T22:26:54.955Z,9.60
2022-12-29T22:28:57.705Z,9.70
2022-12-29T22:31:01.210Z,9.70
2022-12-29T22:33:07.307Z,9.65
2022-12-29T22:35:11.735Z,9.65
2022-12-29T22:37:18.167Z,9.72
2022-12-29T22:39:23.380Z,9.70
2022-12-29T22:41:26.517Z,9.63
2022-12-29T22:43:30.483Z,9.64
2022-12-29T22:45:33.306Z,9.68
2022-12-29T22:47:39.670Z,9.72
2022-12-29T22:49:45.184Z,9.73
2022-12-29T22:51:48.031Z,9.64
2022-12-29T22:53:51.562Z,9.66
2022-12-29T22:56:04.610Z,9.62
2022-12-29T22:58:10.376Z,9.61
2022-12-29T23:00:13.521Z,9.56
2022-12-29T23:02:16.442Z,9.59
2022-12-29T23:05:01.896Z,9.58
2022-12-29T23:06:43.081Z,9.50
2022-12-29T23:08:47.299Z,9.51
2022-12-29T23:10:50.158Z,9.35
2022-12-29T23:12:54.742Z,9.33
2022-12-29T23:14:57.752Z,9.42
2022-12-29T23:17:01.359Z,9.58
2022-12-29T23:19:04.782Z,9.70
2022-12-29T23:21:10.642Z,9.62
2022-12-29T23:23:13.684Z,9.51
2022-12-29T23:25:16.828Z,9.48
2022-12-29T23:27:19.711Z,9.51
2022-12-29T23:29:24.098Z,9.48
2022-12-29T23:31:27.353Z,9.50
2022-12-29T23:33:32.626Z,9.50
2022-12-29T23:35:37.637Z,9.52
2022-12-29T23:37:40.469Z,9.56
2022-12-29T23:39:46.196Z,9.57
2022-12-29T23:41:49.680Z,9.52
2022-12-29T23:43:53.765Z,9.49
2022-12-29T23:45:58.160Z,9.47
2022-12-29T23:48:01.316Z,9.36
2022-12-29T23:50:05.009Z,9.31
2022-12-29T23:52:08.117Z,9.35
2022-12-29T23:54:13.719Z,9.41
2022-12-29T23:56:18.102Z,9.36
2022-12-29T23:58:21.348Z,9.33
